sensor_id;sensor_type;location;lat;lon;timestamp;pressure;altitude;pressure_sealevel;temperature;humidity
30073;BME280;16897;52.422;13.678;2024-03-08T00:03:59;102087.66;;;4.29;50.76
30073;BME280;16897;52.422;13.678;2024-03-08T00:08:00;102054.22;;;4.08;50.78
30073;BME280;16897;52.422;13.678;2024-03-08T00:12:02;102079.13;;;4.19;50.90
30073;BME280;16897;52.422;13.678;2024-03-08T00:16:03;102080.00;;;4.21;50.92
30073;BME280;16897;52.422;13.678;2024-03-08T00:20:06;102071.41;;;4.16;50.88
30073;BME280;16897;52.422;13.678;2024-03-08T00:24:09;102071.44;;;4.13;50.81
30073;BME280;16897;52.422;13.678;2024-03-08T00:28:10;102074.00;;;4.12;50.85
30073;BME280;16897;52.422;13.678;2024-03-08T00:32:16;102069.72;;;4.08;50.84
30073;BME280;16897;52.422;13.678;2024-03-08T00:36:18;102041.47;;;3.82;50.76
30073;BME280;16897;52.422;13.678;2024-03-08T00:40:19;102074.06;;;4.01;50.99
30073;BME280;16897;52.422;13.678;2024-03-08T00:44:21;102056.06;;;3.87;50.96
30073;BME280;16897;52.422;13.678;2024-03-08T00:48:22;102067.28;;;3.89;50.96
30073;BME280;16897;52.422;13.678;2024-03-08T00:52:24;102073.28;;;3.88;50.81
30073;BME280;16897;52.422;13.678;2024-03-08T00:56:25;102073.28;;;3.88;51.04
30073;BME280;16897;52.422;13.678;2024-03-08T01:00:26;102064.69;;;3.83;50.93
30073;BME280;16897;52.422;13.678;2024-03-08T01:04:29;102002.03;;;3.47;51.07
30073;BME280;16897;52.422;13.678;2024-03-08T01:08:30;102040.63;;;3.75;50.97
30073;BME280;16897;52.422;13.678;2024-03-08T01:12:32;102061.31;;;3.78;51.09
30073;BME280;16897;52.422;13.678;2024-03-08T01:16:33;102021.81;;;3.58;51.02
30073;BME280;16897;52.422;13.678;2024-03-08T01:20:34;102035.53;;;3.64;51.02
30073;BME280;16897;52.422;13.678;2024-03-08T01:24:36;102045.88;;;3.66;50.88
30073;BME280;16897;52.422;13.678;2024-03-08T01:28:38;102007.28;;;3.38;51.14
30073;BME280;16897;52.422;13.678;2024-03-08T01:32:39;102010.69;;;3.40;51.02
30073;BME280;16897;52.422;13.678;2024-03-08T01:36:41;102002.09;;;3.37;50.88
30073;BME280;16897;52.422;13.678;2024-03-08T01:40:42;101994.38;;;3.32;51.09
30073;BME280;16897;52.422;13.678;2024-03-08T01:44:43;102018.44;;;3.40;50.94
30073;BME280;16897;52.422;13.678;2024-03-08T01:48:45;102014.16;;;3.31;50.95
30073;BME280;16897;52.422;13.678;2024-03-08T01:52:46;101992.72;;;3.19;51.00
30073;BME280;16897;52.422;13.678;2024-03-08T01:56:48;101997.00;;;3.18;50.84
30073;BME280;16897;52.422;13.678;2024-03-08T02:00:49;102006.47;;;3.21;51.04
30073;BME280;16897;52.422;13.678;2024-03-08T02:04:51;101985.03;;;3.03;51.12
30073;BME280;16897;52.422;13.678;2024-03-08T02:08:53;101973.00;;;2.99;51.07
30073;BME280;16897;52.422;13.678;2024-03-08T02:12:55;101981.59;;;3.04;51.06
30073;BME280;16897;52.422;13.678;2024-03-08T02:17:03;101948.13;;;2.83;51.11
30073;BME280;16897;52.422;13.678;2024-03-08T02:21:06;101971.28;;;2.98;51.14
30073;BME280;16897;52.422;13.678;2024-03-08T02:25:08;101987.63;;;3.08;50.93
30073;BME280;16897;52.422;13.678;2024-03-08T02:29:11;101974.72;;;3.00;51.04
30073;BME280;16897;52.422;13.678;2024-03-08T02:33:16;101981.59;;;3.03;51.19
30073;BME280;16897;52.422;13.678;2024-03-08T02:37:18;101991.06;;;3.05;51.25
30073;BME280;16897;52.422;13.678;2024-03-08T02:41:19;101949.84;;;2.85;51.06
30073;BME280;16897;52.422;13.678;2024-03-08T02:45:20;101978.16;;;3.02;51.08
30073;BME280;16897;52.422;13.678;2024-03-08T02:49:22;101964.47;;;2.86;51.18
30073;BME280;16897;52.422;13.678;2024-03-08T02:53:24;101962.75;;;2.82;50.84
30073;BME280;16897;52.422;13.678;2024-03-08T02:57:25;101949.00;;;2.74;51.03
30073;BME280;16897;52.422;13.678;2024-03-08T03:01:28;101957.63;;;2.73;51.08
30073;BME280;16897;52.422;13.678;2024-03-08T03:05:30;101964.50;;;2.71;51.06
30073;BME280;16897;52.422;13.678;2024-03-08T03:09:31;101938.75;;;2.62;51.11
30073;BME280;16897;52.422;13.678;2024-03-08T03:13:34;101957.63;;;2.67;51.04
30073;BME280;16897;52.422;13.678;2024-03-08T03:17:35;101925.88;;;2.51;51.21
30073;BME280;16897;52.422;13.678;2024-03-08T03:21:36;101967.09;;;2.71;51.13
30073;BME280;16897;52.422;13.678;2024-03-08T03:25:39;101944.75;;;2.56;51.18
30073;BME280;16897;52.422;13.678;2024-03-08T03:29:43;101949.91;;;2.56;51.34
30073;BME280;16897;52.422;13.678;2024-03-08T03:33:47;101943.06;;;2.48;51.17
30073;BME280;16897;52.422;13.678;2024-03-08T03:37:49;101956.81;;;2.57;51.30
30073;BME280;16897;52.422;13.678;2024-03-08T03:42:09;101942.22;;;2.49;51.32
30073;BME280;16897;52.422;13.678;2024-03-08T03:46:10;101956.81;;;2.54;51.28
30073;BME280;16897;52.422;13.678;2024-03-08T03:50:12;101951.66;;;2.48;51.17
30073;BME280;16897;52.422;13.678;2024-03-08T03:54:13;101942.22;;;2.44;51.20
30073;BME280;16897;52.422;13.678;2024-03-08T03:58:14;101871.88;;;1.97;51.41
30073;BME280;16897;52.422;13.678;2024-03-08T04:02:17;101954.25;;;2.47;51.19
30073;BME280;16897;52.422;13.678;2024-03-08T04:06:19;101934.50;;;2.33;51.33
30073;BME280;16897;52.422;13.678;2024-03-08T04:10:20;101947.38;;;2.41;51.30
30073;BME280;16897;52.422;13.678;2024-03-08T04:14:23;101943.94;;;2.34;51.27
30073;BME280;16897;52.422;13.678;2024-03-08T04:18:25;101935.34;;;2.29;51.28
30073;BME280;16897;52.422;13.678;2024-03-08T04:22:26;101954.25;;;2.37;51.23
30073;BME280;16897;52.422;13.678;2024-03-08T04:26:30;101956.00;;;2.32;51.28
30073;BME280;16897;52.422;13.678;2024-03-08T04:30:31;101937.97;;;2.25;51.21
30073;BME280;16897;52.422;13.678;2024-03-08T04:34:32;101925.91;;;2.16;51.40
30073;BME280;16897;52.422;13.678;2024-03-08T04:38:35;101927.66;;;2.12;51.26
30073;BME280;16897;52.422;13.678;2024-03-08T04:42:37;101929.38;;;2.16;51.43
30073;BME280;16897;52.422;13.678;2024-03-08T04:46:40;101948.28;;;2.25;51.47
30073;BME280;16897;52.422;13.678;2024-03-08T04:50:42;101931.94;;;2.12;51.19
30073;BME280;16897;52.422;13.678;2024-03-08T04:54:43;101901.03;;;1.93;51.20
30073;BME280;16897;52.422;13.678;2024-03-08T04:58:47;101952.56;;;2.19;51.40
30073;BME280;16897;52.422;13.678;2024-03-08T05:02:49;101935.38;;;2.08;51.23
30073;BME280;16897;52.422;13.678;2024-03-08T05:06:54;101938.81;;;2.07;51.29
30073;BME280;16897;52.422;13.678;2024-03-08T05:10:56;101905.34;;;1.76;51.53
30073;BME280;16897;52.422;13.678;2024-03-08T05:14:58;101930.25;;;1.95;51.23
30073;BME280;16897;52.422;13.678;2024-03-08T05:18:59;101935.41;;;1.92;51.39
30073;BME280;16897;52.422;13.678;2024-03-08T05:23:01;101939.69;;;1.92;51.43
30073;BME280;16897;52.422;13.678;2024-03-08T05:27:02;101893.31;;;1.61;51.24
30073;BME280;16897;52.422;13.678;2024-03-08T05:31:04;101922.50;;;1.75;51.60
30073;BME280;16897;52.422;13.678;2024-03-08T05:35:06;101913.06;;;1.68;51.36
30073;BME280;16897;52.422;13.678;2024-03-08T05:39:08;101916.50;;;1.69;51.39
30073;BME280;16897;52.422;13.678;2024-03-08T05:43:10;101929.38;;;1.80;51.61
30073;BME280;16897;52.422;13.678;2024-03-08T05:47:12;101867.59;;;1.49;51.43
30073;BME280;16897;52.422;13.678;2024-03-08T05:51:14;101881.31;;;1.57;51.29
30073;BME280;16897;52.422;13.678;2024-03-08T05:55:15;101904.47;;;1.63;51.51
30073;BME280;16897;52.422;13.678;2024-03-08T05:59:16;101906.19;;;1.58;51.31
30073;BME280;16897;52.422;13.678;2024-03-08T06:03:19;101931.97;;;1.70;51.34
30073;BME280;16897;52.422;13.678;2024-03-08T06:07:22;101931.94;;;1.67;51.30
30073;BME280;16897;52.422;13.678;2024-03-08T06:11:24;101911.34;;;1.55;51.48
30073;BME280;16897;52.422;13.678;2024-03-08T06:15:28;101911.31;;;1.47;51.50
30073;BME280;16897;52.422;13.678;2024-03-08T06:19:29;101934.50;;;1.61;51.45
30073;BME280;16897;52.422;13.678;2024-03-08T06:23:34;101938.78;;;1.58;51.67
30073;BME280;16897;52.422;13.678;2024-03-08T06:27:42;101932.81;;;1.57;51.53
30073;BME280;16897;52.422;13.678;2024-03-08T06:31:44;101922.47;;;1.45;51.50
30073;BME280;16897;52.422;13.678;2024-03-08T06:35:45;101930.22;;;1.55;51.53
30073;BME280;16897;52.422;13.678;2024-03-08T06:39:50;101931.06;;;1.56;51.62
30073;BME280;16897;52.422;13.678;2024-03-08T06:43:56;101922.50;;;1.52;51.64
30073;BME280;16897;52.422;13.678;2024-03-08T06:47:59;101940.53;;;1.63;51.60
30073;BME280;16897;52.422;13.678;2024-03-08T06:52:00;101941.38;;;1.65;51.51
30073;BME280;16897;52.422;13.678;2024-03-08T06:56:02;101930.25;;;1.65;51.67
30073;BME280;16897;52.422;13.678;2024-03-08T07:00:04;101837.50;;;1.16;51.63
30073;BME280;16897;52.422;13.678;2024-03-08T07:04:06;101933.66;;;1.74;51.57
30073;BME280;16897;52.422;13.678;2024-03-08T07:08:07;101904.50;;;1.68;51.71
30073;BME280;16897;52.422;13.678;2024-03-08T07:12:09;101926.81;;;1.87;51.71
30073;BME280;16897;52.422;13.678;2024-03-08T07:16:10;101927.66;;;1.91;51.94
30073;BME280;16897;52.422;13.678;2024-03-08T07:20:16;101929.38;;;2.01;51.84
30073;BME280;16897;52.422;13.678;2024-03-08T07:24:19;101928.50;;;2.14;51.80
30073;BME280;16897;52.422;13.678;2024-03-08T07:28:47;101931.94;;;2.33;52.08
30073;BME280;16897;52.422;13.678;2024-03-08T07:32:49;101867.53;;;2.12;52.10
30073;BME280;16897;52.422;13.678;2024-03-08T07:36:50;101911.28;;;2.49;52.22
30073;BME280;16897;52.422;13.678;2024-03-08T07:40:52;101913.78;;;2.64;52.04
30073;BME280;16897;52.422;13.678;2024-03-08T07:44:53;101901.75;;;2.74;51.97
30073;BME280;16897;52.422;13.678;2024-03-08T07:48:55;101867.34;;;2.72;52.05
30073;BME280;16897;52.422;13.678;2024-03-08T07:52:57;101908.44;;;3.12;52.13
30073;BME280;16897;52.422;13.678;2024-03-08T07:56:59;101868.91;;;3.05;52.02
30073;BME280;16897;52.422;13.678;2024-03-08T08:01:00;101888.56;;;3.29;52.19
30073;BME280;16897;52.422;13.678;2024-03-08T08:05:06;101895.31;;;3.51;52.32
30073;BME280;16897;52.422;13.678;2024-03-08T08:09:07;101892.59;;;3.67;52.43
30073;BME280;16897;52.422;13.678;2024-03-08T08:13:29;101848.72;;;3.64;52.33
30073;BME280;16897;52.422;13.678;2024-03-08T08:17:33;101868.25;;;3.95;52.50
30073;BME280;16897;52.422;13.678;2024-03-08T08:21:36;101892.00;;;4.31;52.61
30073;BME280;16897;52.422;13.678;2024-03-08T08:25:37;101897.81;;;4.53;52.59
30073;BME280;16897;52.422;13.678;2024-03-08T08:29:40;101889.88;;;4.67;52.63
30073;BME280;16897;52.422;13.678;2024-03-08T08:33:41;101891.38;;;4.86;52.66
30073;BME280;16897;52.422;13.678;2024-03-08T08:37:43;101860.19;;;4.96;52.73
30073;BME280;16897;52.422;13.678;2024-03-08T08:41:45;101863.31;;;5.19;52.53
30073;BME280;16897;52.422;13.678;2024-03-08T08:45:46;101872.38;;;5.49;52.77
30073;BME280;16897;52.422;13.678;2024-03-08T08:49:51;101865.22;;;5.64;52.59
30073;BME280;16897;52.422;13.678;2024-03-08T08:53:52;101848.66;;;5.74;52.71
30073;BME280;16897;52.422;13.678;2024-03-08T08:57:54;101857.78;;;5.96;52.51
30073;BME280;16897;52.422;13.678;2024-03-08T09:01:57;101858.28;;;6.18;52.79
30073;BME280;16897;52.422;13.678;2024-03-08T09:05:58;101848.50;;;6.31;52.71
30073;BME280;16897;52.422;13.678;2024-03-08T09:10:00;101810.56;;;6.27;52.64
30073;BME280;16897;52.422;13.678;2024-03-08T09:14:02;101821.22;;;6.55;52.73
30073;BME280;16897;52.422;13.678;2024-03-08T09:18:03;101840.47;;;6.85;52.63
30073;BME280;16897;52.422;13.678;2024-03-08T09:22:07;101812.66;;;6.91;52.47
30073;BME280;16897;52.422;13.678;2024-03-08T09:26:08;101816.53;;;7.10;52.38
30073;BME280;16897;52.422;13.678;2024-03-08T09:30:10;101821.13;;;7.36;52.48
30073;BME280;16897;52.422;13.678;2024-03-08T09:34:14;101807.06;;;7.45;52.47
30073;BME280;16897;52.422;13.678;2024-03-08T09:38:15;101816.16;;;7.63;52.41
30073;BME280;16897;52.422;13.678;2024-03-08T09:42:17;101766.09;;;7.54;52.37
30073;BME280;16897;52.422;13.678;2024-03-08T09:46:19;101804.09;;;7.93;52.34
30073;BME280;16897;52.422;13.678;2024-03-08T09:50:23;101803.03;;;8.00;52.23
30073;BME280;16897;52.422;13.678;2024-03-08T09:54:27;101796.59;;;8.13;52.19
30073;BME280;16897;52.422;13.678;2024-03-08T09:58:29;101801.34;;;8.29;52.12
30073;BME280;16897;52.422;13.678;2024-03-08T10:02:34;101784.69;;;8.36;51.95
30073;BME280;16897;52.422;13.678;2024-03-08T10:06:36;101788.53;;;8.54;52.01
30073;BME280;16897;52.422;13.678;2024-03-08T10:10:37;101786.47;;;8.65;51.94
30073;BME280;16897;52.422;13.678;2024-03-08T10:14:40;101756.91;;;8.66;51.77
30073;BME280;16897;52.422;13.678;2024-03-08T10:18:42;101762.56;;;8.80;51.82
30073;BME280;16897;52.422;13.678;2024-03-08T10:22:43;101753.63;;;8.89;51.69
30073;BME280;16897;52.422;13.678;2024-03-08T10:26:45;101755.81;;;9.01;51.81
30073;BME280;16897;52.422;13.678;2024-03-08T10:30:47;101756.31;;;9.13;51.74
30073;BME280;16897;52.422;13.678;2024-03-08T10:34:49;101720.03;;;9.06;51.77
30073;BME280;16897;52.422;13.678;2024-03-08T10:38:51;101730.59;;;9.28;51.70
30073;BME280;16897;52.422;13.678;2024-03-08T10:42:56;101741.94;;;9.52;51.76
30073;BME280;16897;52.422;13.678;2024-03-08T10:47:15;101737.13;;;9.67;51.54
30073;BME280;16897;52.422;13.678;2024-03-08T10:51:19;101720.34;;;9.74;51.64
30073;BME280;16897;52.422;13.678;2024-03-08T10:55:21;101691.03;;;9.67;51.28
30073;BME280;16897;52.422;13.678;2024-03-08T10:59:23;101720.41;;;9.96;51.02
30073;BME280;16897;52.422;13.678;2024-03-08T11:07:45;101706.84;;;10.10;50.95
30073;BME280;16897;52.422;13.678;2024-03-08T11:11:46;101692.66;;;10.17;51.04
30073;BME280;16897;52.422;13.678;2024-03-08T11:15:48;101672.72;;;10.16;50.70
30073;BME280;16897;52.422;13.678;2024-03-08T11:19:49;101687.75;;;10.33;50.71
30073;BME280;16897;52.422;13.678;2024-03-08T11:24:07;101677.72;;;10.44;50.76
30073;BME280;16897;52.422;13.678;2024-03-08T11:32:20;101658.19;;;10.54;50.51
30073;BME280;16897;52.422;13.678;2024-03-08T11:36:23;101666.44;;;10.66;50.02
30073;BME280;16897;52.422;13.678;2024-03-08T11:40:25;101656.69;;;10.69;50.33
30073;BME280;16897;52.422;13.678;2024-03-08T11:44:27;101624.63;;;10.66;50.48
30073;BME280;16897;52.422;13.678;2024-03-08T11:48:29;101650.53;;;10.92;50.40
30073;BME280;16897;52.422;13.678;2024-03-08T11:52:30;101650.13;;;11.01;50.17
30073;BME280;16897;52.422;13.678;2024-03-08T11:56:32;101632.72;;;11.02;50.23
30073;BME280;16897;52.422;13.678;2024-03-08T12:00:34;101652.97;;;11.17;50.03
30073;BME280;16897;52.422;13.678;2024-03-08T12:04:39;101652.72;;;11.23;50.21
30073;BME280;16897;52.422;13.678;2024-03-08T12:08:42;101633.53;;;11.23;49.92
30073;BME280;16897;52.422;13.678;2024-03-08T12:12:55;101633.47;;;11.24;49.92
30073;BME280;16897;52.422;13.678;2024-03-08T12:16:57;101625.56;;;11.26;49.78
30073;BME280;16897;52.422;13.678;2024-03-08T12:21:08;101633.81;;;11.37;49.35
30073;BME280;16897;52.422;13.678;2024-03-08T12:25:13;101613.03;;;11.34;49.34
30073;BME280;16897;52.422;13.678;2024-03-08T12:29:24;101622.94;;;11.46;49.35
30073;BME280;16897;52.422;13.678;2024-03-08T12:33:26;101608.06;;;11.47;49.46
30073;BME280;16897;52.422;13.678;2024-03-08T12:37:28;101591.50;;;11.48;49.46
30073;BME280;16897;52.422;13.678;2024-03-08T12:41:30;101571.56;;;11.45;49.59
30073;BME280;16897;52.422;13.678;2024-03-08T12:45:31;101597.78;;;11.63;49.47
30073;BME280;16897;52.422;13.678;2024-03-08T12:49:33;101580.53;;;11.59;48.99
30073;BME280;16897;52.422;13.678;2024-03-08T12:53:35;101579.31;;;11.66;48.93
30073;BME280;16897;52.422;13.678;2024-03-08T12:57:36;101575.84;;;11.65;49.21
30073;BME280;16897;52.422;13.678;2024-03-08T13:01:38;101518.59;;;11.40;49.04
30073;BME280;16897;52.422;13.678;2024-03-08T13:05:40;101547.03;;;11.67;49.01
30073;BME280;16897;52.422;13.678;2024-03-08T13:09:43;101548.56;;;11.71;48.98
30073;BME280;16897;52.422;13.678;2024-03-08T13:13:45;101506.81;;;11.50;48.91
30073;BME280;16897;52.422;13.678;2024-03-08T13:17:47;101539.66;;;11.75;48.67
30073;BME280;16897;52.422;13.678;2024-03-08T13:21:49;101540.19;;;11.82;48.69
30073;BME280;16897;52.422;13.678;2024-03-08T13:25:51;101529.03;;;11.78;48.85
30073;BME280;16897;52.422;13.678;2024-03-08T13:29:52;101527.22;;;11.80;48.70
30073;BME280;16897;52.422;13.678;2024-03-08T13:33:54;101482.59;;;11.64;48.73
30073;BME280;16897;52.422;13.678;2024-03-08T13:37:59;101519.63;;;11.93;48.64
30073;BME280;16897;52.422;13.678;2024-03-08T13:42:04;101526.50;;;11.95;48.67
30073;BME280;16897;52.422;13.678;2024-03-08T13:46:10;101497.31;;;11.86;48.49
30073;BME280;16897;52.422;13.678;2024-03-08T13:50:12;101499.03;;;11.85;48.58
30073;BME280;16897;52.422;13.678;2024-03-08T13:54:13;101495.38;;;11.89;48.55
30073;BME280;16897;52.422;13.678;2024-03-08T13:58:17;101496.06;;;11.93;48.47
30073;BME280;16897;52.422;13.678;2024-03-08T14:02:19;101468.09;;;11.76;48.37
30073;BME280;16897;52.422;13.678;2024-03-08T14:06:20;101483.09;;;11.91;48.25
30073;BME280;16897;52.422;13.678;2024-03-08T14:10:27;101489.00;;;11.95;47.98
30073;BME280;16897;52.422;13.678;2024-03-08T14:14:28;101461.44;;;11.88;47.99
30073;BME280;16897;52.422;13.678;2024-03-08T14:18:30;101457.97;;;11.87;47.81
30073;BME280;16897;52.422;13.678;2024-03-08T14:22:31;101467.22;;;11.94;47.92
30073;BME280;16897;52.422;13.678;2024-03-08T14:26:33;101422.75;;;11.76;47.96
30073;BME280;16897;52.422;13.678;2024-03-08T14:30:35;101446.28;;;11.94;47.76
30073;BME280;16897;52.422;13.678;2024-03-08T14:34:39;101446.19;;;11.96;47.90
30073;BME280;16897;52.422;13.678;2024-03-08T14:38:40;101434.88;;;11.95;47.49
30073;BME280;16897;52.422;13.678;2024-03-08T14:42:42;101429.97;;;11.89;47.45
30073;BME280;16897;52.422;13.678;2024-03-08T14:46:44;101422.72;;;11.94;47.42
30073;BME280;16897;52.422;13.678;2024-03-08T14:50:45;101440.53;;;12.05;47.46
30073;BME280;16897;52.422;13.678;2024-03-08T14:54:48;101414.78;;;11.96;47.66
30073;BME280;16897;52.422;13.678;2024-03-08T14:58:50;101431.81;;;12.05;47.33
30073;BME280;16897;52.422;13.678;2024-03-08T15:02:53;101427.34;;;12.07;47.46
30073;BME280;16897;52.422;13.678;2024-03-08T15:06:55;101384.81;;;11.84;47.39
30073;BME280;16897;52.422;13.678;2024-03-08T15:10:57;101425.50;;;12.09;47.38
30073;BME280;16897;52.422;13.678;2024-03-08T15:15:00;101423.81;;;12.08;47.40
30073;BME280;16897;52.422;13.678;2024-03-08T15:19:02;101408.53;;;11.99;47.26
30073;BME280;16897;52.422;13.678;2024-03-08T15:23:06;101407.53;;;12.01;47.31
30073;BME280;16897;52.422;13.678;2024-03-08T15:27:10;101411.94;;;12.01;47.33
30073;BME280;16897;52.422;13.678;2024-03-08T15:31:12;101406.03;;;11.97;47.19
30073;BME280;16897;52.422;13.678;2024-03-08T15:35:14;101390.53;;;11.92;47.30
30073;BME280;16897;52.422;13.678;2024-03-08T15:39:18;101392.31;;;11.92;47.22
30073;BME280;16897;52.422;13.678;2024-03-08T15:43:22;101383.69;;;11.90;47.27
30073;BME280;16897;52.422;13.678;2024-03-08T15:47:23;101388.09;;;11.89;47.19
30073;BME280;16897;52.422;13.678;2024-03-08T15:51:26;101385.75;;;11.83;47.06
30073;BME280;16897;52.422;13.678;2024-03-08T15:55:28;101386.66;;;11.82;47.17
30073;BME280;16897;52.422;13.678;2024-03-08T15:59:30;101377.50;;;11.73;47.19
30073;BME280;16897;52.422;13.678;2024-03-08T16:03:34;101364.88;;;11.64;47.12
30073;BME280;16897;52.422;13.678;2024-03-08T16:07:36;101374.25;;;11.68;47.13
30073;BME280;16897;52.422;13.678;2024-03-08T16:11:38;101362.41;;;11.61;47.01
30073;BME280;16897;52.422;13.678;2024-03-08T16:15:40;101335.44;;;11.42;47.04
30073;BME280;16897;52.422;13.678;2024-03-08T16:19:45;101296.69;;;11.15;47.08
30073;BME280;16897;52.422;13.678;2024-03-08T16:23:46;101357.78;;;11.49;47.16
30073;BME280;16897;52.422;13.678;2024-03-08T16:27:49;101379.13;;;11.59;47.22
30073;BME280;16897;52.422;13.678;2024-03-08T16:31:51;101368.03;;;11.54;47.02
30073;BME280;16897;52.422;13.678;2024-03-08T16:35:52;101351.91;;;11.44;46.95
30073;BME280;16897;52.422;13.678;2024-03-08T16:39:55;101326.28;;;11.16;47.17
30073;BME280;16897;52.422;13.678;2024-03-08T16:43:57;101369.75;;;11.36;47.15
30073;BME280;16897;52.422;13.678;2024-03-08T16:47:58;101357.97;;;11.27;47.16
30073;BME280;16897;52.422;13.678;2024-03-08T16:52:00;101358.97;;;11.24;47.14
30073;BME280;16897;52.422;13.678;2024-03-08T16:56:02;101360.88;;;11.21;47.25
30073;BME280;16897;52.422;13.678;2024-03-08T17:00:04;101354.88;;;11.19;46.99
30073;BME280;16897;52.422;13.678;2024-03-08T17:04:11;101340.00;;;11.02;47.00
30073;BME280;16897;52.422;13.678;2024-03-08T17:08:14;101343.59;;;10.99;47.12
30073;BME280;16897;52.422;13.678;2024-03-08T17:12:17;101355.09;;;10.95;46.99
30073;BME280;16897;52.422;13.678;2024-03-08T17:16:20;101345.00;;;10.88;47.21
30073;BME280;16897;52.422;13.678;2024-03-08T17:20:27;101342.03;;;10.76;47.20
30073;BME280;16897;52.422;13.678;2024-03-08T17:24:29;101343.81;;;10.76;47.25
30073;BME280;16897;52.422;13.678;2024-03-08T17:28:30;101356.19;;;10.72;47.28
30073;BME280;16897;52.422;13.678;2024-03-08T17:32:32;101358.78;;;10.72;47.13
30073;BME280;16897;52.422;13.678;2024-03-08T17:36:34;101357.38;;;10.65;47.17
30073;BME280;16897;52.422;13.678;2024-03-08T17:40:38;101352.63;;;10.54;46.96
30073;BME280;16897;52.422;13.678;2024-03-08T17:44:40;101353.75;;;10.49;46.95
30073;BME280;16897;52.422;13.678;2024-03-08T17:48:41;101310.06;;;10.13;47.10
30073;BME280;16897;52.422;13.678;2024-03-08T17:52:44;101351.09;;;10.30;47.05
30073;BME280;16897;52.422;13.678;2024-03-08T17:56:45;101350.47;;;10.23;47.10
30073;BME280;16897;52.422;13.678;2024-03-08T18:00:47;101318.81;;;9.91;47.10
30073;BME280;16897;52.422;13.678;2024-03-08T18:04:52;101343.53;;;10.03;47.11
30073;BME280;16897;52.422;13.678;2024-03-08T18:08:54;101336.16;;;9.92;47.11
30073;BME280;16897;52.422;13.678;2024-03-08T18:12:57;101344.16;;;9.88;47.10
30073;BME280;16897;52.422;13.678;2024-03-08T18:16:59;101348.09;;;9.78;47.01
30073;BME280;16897;52.422;13.678;2024-03-08T18:21:01;101351.16;;;9.67;47.22
30073;BME280;16897;52.422;13.678;2024-03-08T18:25:06;101349.53;;;9.64;47.26
30073;BME280;16897;52.422;13.678;2024-03-08T18:29:13;101345.41;;;9.59;47.18
30073;BME280;16897;52.422;13.678;2024-03-08T18:33:17;101355.88;;;9.57;47.07
30073;BME280;16897;52.422;13.678;2024-03-08T18:37:19;101350.09;;;9.50;47.31
30073;BME280;16897;52.422;13.678;2024-03-08T18:41:20;101350.28;;;9.46;47.09
30073;BME280;16897;52.422;13.678;2024-03-08T18:45:22;101339.44;;;9.35;46.97
30073;BME280;16897;52.422;13.678;2024-03-08T18:49:25;101337.06;;;9.28;47.33
30073;BME280;16897;52.422;13.678;2024-03-08T18:53:27;101332.09;;;9.22;47.16
30073;BME280;16897;52.422;13.678;2024-03-08T18:57:29;101346.81;;;9.23;47.29
30073;BME280;16897;52.422;13.678;2024-03-08T19:01:31;101325.66;;;9.09;47.23
30073;BME280;16897;52.422;13.678;2024-03-08T19:05:38;101326.50;;;9.09;47.13
30073;BME280;16897;52.422;13.678;2024-03-08T19:09:43;101276.53;;;8.78;47.28
30073;BME280;16897;52.422;13.678;2024-03-08T19:13:47;101304.66;;;8.92;47.23
30073;BME280;16897;52.422;13.678;2024-03-08T19:17:50;101311.53;;;8.93;46.96
30073;BME280;16897;52.422;13.678;2024-03-08T19:21:52;101296.28;;;8.83;47.41
30073;BME280;16897;52.422;13.678;2024-03-08T19:25:53;101313.84;;;8.78;47.29
30073;BME280;16897;52.422;13.678;2024-03-08T19:29:55;101316.56;;;8.75;47.19
30073;BME280;16897;52.422;13.678;2024-03-08T19:33:56;101305.03;;;8.59;47.23
30073;BME280;16897;52.422;13.678;2024-03-08T19:37:58;101311.13;;;8.58;47.33
30073;BME280;16897;52.422;13.678;2024-03-08T19:42:00;101319.06;;;8.55;47.25
30073;BME280;16897;52.422;13.678;2024-03-08T19:46:01;101307.13;;;8.49;47.23
30073;BME280;16897;52.422;13.678;2024-03-08T19:50:03;101302.16;;;8.43;47.29
30073;BME280;16897;52.422;13.678;2024-03-08T19:54:09;101323.47;;;8.53;47.36
30073;BME280;16897;52.422;13.678;2024-03-08T19:58:10;101321.06;;;8.48;47.20
30073;BME280;16897;52.422;13.678;2024-03-08T20:02:12;101293.75;;;8.35;47.40
30073;BME280;16897;52.422;13.678;2024-03-08T20:06:14;101305.72;;;8.40;47.28
30073;BME280;16897;52.422;13.678;2024-03-08T20:10:15;101261.72;;;8.09;47.28
30073;BME280;16897;52.422;13.678;2024-03-08T20:14:17;101286.44;;;8.21;47.49
30073;BME280;16897;52.422;13.678;2024-03-08T20:18:19;101293.47;;;8.19;47.29
30073;BME280;16897;52.422;13.678;2024-03-08T20:22:27;101275.84;;;8.02;47.34
30073;BME280;16897;52.422;13.678;2024-03-08T20:26:29;101276.75;;;8.01;47.28
30073;BME280;16897;52.422;13.678;2024-03-08T20:30:31;101241.28;;;7.75;47.16
30073;BME280;16897;52.422;13.678;2024-03-08T20:34:32;101272.69;;;7.94;47.44
30073;BME280;16897;52.422;13.678;2024-03-08T20:38:35;101281.38;;;7.93;47.28
30073;BME280;16897;52.422;13.678;2024-03-08T20:42:38;101278.84;;;7.91;47.51
30073;BME280;16897;52.422;13.678;2024-03-08T20:46:42;101270.34;;;7.86;47.25
30073;BME280;16897;52.422;13.678;2024-03-08T20:50:43;101253.38;;;7.76;47.24
30073;BME280;16897;52.422;13.678;2024-03-08T20:54:45;101232.03;;;7.66;47.43
30073;BME280;16897;52.422;13.678;2024-03-08T20:58:48;101263.81;;;7.74;47.45
30073;BME280;16897;52.422;13.678;2024-03-08T21:02:49;101258.56;;;7.76;47.46
30073;BME280;16897;52.422;13.678;2024-03-08T21:06:52;101258.69;;;7.73;47.25
30073;BME280;16897;52.422;13.678;2024-03-08T21:10:54;101251.25;;;7.62;47.36
30073;BME280;16897;52.422;13.678;2024-03-08T21:14:55;101233.53;;;7.48;47.48